TVD: DANGEROUS LIAISONS

Информация о пользователе

Привет, Гость! Войдите или зарегистрируйтесь.


Вы здесь » TVD: DANGEROUS LIAISONS » ❖ дружбообмен


❖ дружбообмен

Тем 1 страница 27 из 27

Тема Ответов Просмотров Последнее сообщение
3 509 2013-06-26 16:54:58  опасные связи
2 Важно: Новости партнерства  Erica Sanders
1 358 2013-05-14 06:09:10  Erica Sanders
0 363 2013-05-04 17:01:07  Erica Sanders
4 Важно: [vip] THISWAY: Life will not wait  Erica Sanders
0 354 2013-04-23 17:07:04  Erica Sanders
21 7247 2013-07-02 20:14:43  опасные связи
6 TVD: Breath Of Life  Jine Baily
14 422 2013-07-01 14:35:40  опасные связи
7 NEFAS  Elena Gilbert
10 413 2013-06-20 14:06:33  опасные связи
8 TVD: tumult feelings  Jine Baily
3 383 2013-06-15 21:37:13  опасные связи
9 FRPG: DEAR AGONY  Jine Baily
4 399 2013-06-14 13:40:04  опасные связи
10 TVD: Immortal  Elena Gilbert
2 341 2013-06-08 18:00:46  опасные связи
11 SPACE CROSSOVER  Elena Gilbert
4 407 2013-05-29 20:46:19  опасные связи
12 DieIdiots  Erica Sanders
1 358 2013-05-26 15:31:56  опасные связи
13 TVD: Eternal night  Jine Baily
1 348 2013-05-22 22:37:08  опасные связи
14 DECADENCE  Elena Gilbert
8 426 2013-05-19 21:24:02  опасные связи
15 TVD: Last Dance  Erica Sanders
2 349 2013-05-19 18:11:05  опасные связи
1 335 2013-05-13 19:24:12  опасные связи
17 [LET'S PLAY A GAME]  Erica Sanders
2 402 2013-05-12 17:27:16  опасные связи
0 351 2013-05-12 07:06:44  Erica Sanders
19 Hollywood. Bad Wolf  Erica Sanders
0 357 2013-05-11 15:24:49  Erica Sanders
20 frpg Crossover  Jine Baily
0 388 2013-05-10 11:22:58  Jine Baily
0 398 2013-05-10 11:05:02  Jine Baily
4 381 2013-05-09 12:24:57  опасные связи
0 351 2013-05-09 10:47:46  Jine Baily
24 tvd. last revelation  Jine Baily
0 387 2013-05-09 10:08:54  Jine Baily
25 TVD: Mystic Falls  Jine Baily
0 363 2013-05-06 14:35:17  Jine Baily
0 364 2013-05-06 14:03:25  Jine Baily
0 342 2013-04-24 05:56:13  Elena Gilbert

Вы здесь » TVD: DANGEROUS LIAISONS » ❖ дружбообмен


Рейтинг форумов | Создать форум бесплатно © 2007–2017 «QuadroSystems» LLC